16°C Temp
10°C Dewpoint
68% Humidity
Temperature
10 KM/H
6 MPH
5 KTS
350°
Due North

Wind Speed
Partly Cloudy
Conditions
Pressure 1023.92 (hPa) - 30.24 (in)
Visibility 6.2 (mi) - 10.0 (km)

Current Conditions
LECO
Location 50(km)
Metar :LECO 272000Z 35005KT 300V060 9999 FEW025 16/10 Q1024 NOSIG
Mon 27th June 22:00 pm

Airport
  Metar Aviation API Data Provided by https://www.checkwx.com/ PHP scripts by weather34.com ©2022